ROMMA est une association bénévole à but non lucratif. Votre soutien est indispensable : ADHERER à ROMMA ou FAIRE un DON

Taninges - (74, Haute-Savoie)

Vallée du Giffre (635 m)   Longitude: 06° 35' 38" E   Latitude: 46° 06' 21" N Station romma n°98
 

Détail journalier du     <<     >>

Température Precipitation Humidité Pression Vent Dir Rafale Dir. rafale Ensol.
Heure (°C) (mm) (%) (hPa) (km/h) (km/h) (min)
01:00 4.1086101405S0
02:00 2.708910131ESE5ESE0
03:00 1.70901013000
04:00 1.809310131SE3SE0
05:00 1.709310131ONO6ONO0
06:00 0.609310131ONO3ONO0
07:00 0.6094101403NO0
08:00 3.409310131ESE5E45
09:00 6.708110122SSE6O60
10:00 9.207610127OSO19OSO60
11:00 11.407010117SO16OSO60
12:00 12.7069101013OSO24O60
13:00 14.0062100912SO24SSO60
14:00 15.7054100913SO26OSO60
15:00 16.3050100913O29SO60
16:00 16.9049100812O24OSO60
17:00 17.2047100710O24O60
18:00 17.304510078O21O55
19:00 16.704610078O18O60
20:00 14.905210077OSO21OSO55
21:00 12.406310072ENE11OSO0
22:00 9.8071100706NE0
23:00 7.3081100703ENE0
minuit 6.3086100703ESE0

Graphique du 16-05-2019

 

Serveur OMMA